Time;durP1;ratioP1;P1;durP2;ratioP2;P2;SDS_P1;SDS_P2;PMS_P1;PMS_P2;Temp;Humidity;BMP_temperature;BMP_pressure;BME280_temperature;BME280_humidity;BME280_pressure;Samples;Min_cycle;Max_cycle;Signal;HPM_P1;HPM_P2
2023/01/30 00:02:20;;;;;;;11.55;9.43;;;;;;;;;;10340240;28;20060;-71
2023/01/30 00:07:19;;;;;;;13.07;9.45;;;;;;;;;;10340955;28;20064;-70
2023/01/30 00:12:18;;;;;;;10.43;8.75;;;;;;;;;;10351804;28;20138;-70
2023/01/30 00:17:16;;;;;;;13.20;9.80;;;;;;;;;;10337318;28;20091;-70
2023/01/30 00:22:14;;;;;;;12.90;9.57;;;;;;;;;;10339692;28;20071;-71
2023/01/30 00:27:14;;;;;;;14.32;10.57;;;;;;;;;;10335159;28;20079;-71
2023/01/30 00:32:12;;;;;;;13.40;10.30;;;;;;;;;;10319150;28;20083;-71
2023/01/30 00:37:10;;;;;;;11.55;8.70;;;;;;;;;;10319476;28;20040;-71
2023/01/30 00:47:26;;;;;;;10.48;9.23;;;;;;;;;;10334235;28;20067;-70
2023/01/30 00:52:24;;;;;;;12.05;10.52;;;;;;;;;;10316794;28;20541;-70
2023/01/30 00:57:22;;;;;;;14.18;11.32;;;;;;;;;;10330060;28;20531;-70
2023/01/30 01:02:20;;;;;;;10.63;9.38;;;;;;;;;;10337501;28;20171;-70
2023/01/30 01:07:20;;;;;;;10.35;7.88;;;;;;;;;;10336759;28;20064;-70
2023/01/30 01:12:19;;;;;;;12.68;9.43;;;;;;;;;;10337771;28;20067;-70
2023/01/30 01:17:17;;;;;;;13.32;10.85;;;;;;;;;;10338770;28;20488;-70
2023/01/30 01:22:15;;;;;;;11.40;8.85;;;;;;;;;;10334635;28;20517;-70
2023/01/30 01:27:18;;;;;;;12.32;10.43;;;;;;;;;;10334715;28;20792;-70
2023/01/30 01:32:16;;;;;;;14.90;10.80;;;;;;;;;;10335620;28;20070;-71
2023/01/30 01:37:14;;;;;;;12.95;11.48;;;;;;;;;;10336848;28;20521;-71
2023/01/30 01:42:13;;;;;;;29.85;22.60;;;;;;;;;;10334114;28;20210;-70
2023/01/30 01:47:12;;;;;;;18.58;13.90;;;;;;;;;;10337352;28;20474;-69
2023/01/30 01:52:13;;;;;;;19.75;15.48;;;;;;;;;;10331270;28;20071;-69
2023/01/30 01:57:12;;;;;;;21.13;15.30;;;;;;;;;;10333191;28;20079;-70
2023/01/30 02:02:12;;;;;;;19.77;15.52;;;;;;;;;;10355750;28;20425;-70
2023/01/30 02:07:12;;;;;;;18.38;14.50;;;;;;;;;;10344772;28;20530;-70
2023/01/30 02:12:11;;;;;;;23.65;17.20;;;;;;;;;;10359811;28;20147;-69
2023/01/30 02:17:09;;;;;;;36.28;22.92;;;;;;;;;;10338902;28;20074;-69
2023/01/30 02:22:24;;;;;;;23.75;17.15;;;;;;;;;;10339616;28;20060;-69
2023/01/30 02:27:28;;;;;;;21.30;15.20;;;;;;;;;;10344250;28;20087;-70
2023/01/30 02:32:33;;;;;;;21.75;16.92;;;;;;;;;;10341770;28;20041;-69
2023/01/30 02:37:42;;;;;;;23.47;16.70;;;;;;;;;;10343812;28;20086;-69
2023/01/30 02:42:47;;;;;;;24.00;16.50;;;;;;;;;;10337832;28;20079;-70
2023/01/30 02:47:52;;;;;;;21.52;15.13;;;;;;;;;;10323462;28;20483;-71
2023/01/30 02:52:50;;;;;;;20.38;15.05;;;;;;;;;;10322835;28;20076;-70
2023/01/30 02:57:48;;;;;;;18.98;14.15;;;;;;;;;;10335764;28;20536;-71
2023/01/30 03:03:06;;;;;;;21.35;15.32;;;;;;;;;;10323331;28;20078;-71
2023/01/30 03:08:09;;;;;;;20.55;14.23;;;;;;;;;;10345157;28;20064;-70
2023/01/30 03:13:11;;;;;;;20.38;14.40;;;;;;;;;;10338704;28;20069;-71
2023/01/30 03:18:11;;;;;;;19.02;14.10;;;;;;;;;;10338600;28;20036;-70
2023/01/30 03:23:09;;;;;;;18.58;13.25;;;;;;;;;;10336239;28;20051;-70
2023/01/30 03:28:08;;;;;;;20.33;15.18;;;;;;;;;;10339547;28;20064;-70
2023/01/30 03:33:06;;;;;;;18.52;13.98;;;;;;;;;;10335435;28;20525;-70
2023/01/30 03:38:08;;;;;;;21.08;15.30;;;;;;;;;;10354469;28;20086;-69
2023/01/30 03:43:06;;;;;;;21.38;14.75;;;;;;;;;;10340432;28;20065;-69
2023/01/30 03:48:06;;;;;;;28.48;16.40;;;;;;;;;;10318231;28;20513;-69
2023/01/30 03:53:04;;;;;;;23.13;14.98;;;;;;;;;;10321147;28;20076;-70
2023/01/30 03:58:04;;;;;;;24.00;15.95;;;;;;;;;;10338992;28;20536;-70
2023/01/30 04:03:04;;;;;;;21.13;17.85;;;;;;;;;;10315555;28;20079;-69
2023/01/30 04:08:02;;;;;;;22.38;17.30;;;;;;;;;;10336849;28;20082;-70
2023/01/30 04:13:00;;;;;;;23.27;19.25;;;;;;;;;;10319752;28;20083;-70
2023/01/30 04:18:02;;;;;;;30.88;23.67;;;;;;;;;;10318676;28;20071;-70
2023/01/30 04:23:23;;;;;;;24.98;17.73;;;;;;;;;;10318889;28;20071;-70
2023/01/30 04:28:23;;;;;;;31.48;21.98;;;;;;;;;;10338089;28;20119;-70
2023/01/30 04:33:24;;;;;;;23.83;17.50;;;;;;;;;;10325370;28;20075;-70
2023/01/30 04:38:23;;;;;;;24.67;17.63;;;;;;;;;;10335820;28;20075;-70
2023/01/30 04:43:23;;;;;;;24.55;17.25;;;;;;;;;;10321157;28;20469;-70
2023/01/30 04:48:41;;;;;;;21.17;15.98;;;;;;;;;;10322286;28;20084;-70
2023/01/30 04:53:40;;;;;;;18.60;14.57;;;;;;;;;;10332640;28;20076;-70
2023/01/30 04:58:38;;;;;;;20.85;16.38;;;;;;;;;;10331129;28;20041;-70
2023/01/30 05:03:38;;;;;;;25.80;19.02;;;;;;;;;;10337983;28;20080;-69
2023/01/30 05:08:37;;;;;;;19.48;14.95;;;;;;;;;;10331044;28;20095;-69
2023/01/30 05:13:36;;;;;;;20.80;15.27;;;;;;;;;;10334218;28;20095;-69
2023/01/30 05:18:34;;;;;;;20.60;15.30;;;;;;;;;;10335554;28;20072;-69
2023/01/30 05:23:32;;;;;;;19.67;15.05;;;;;;;;;;10331041;28;20454;-69
2023/01/30 05:28:32;;;;;;;17.92;14.20;;;;;;;;;;10334786;28;20075;-69
2023/01/30 05:33:30;;;;;;;21.73;14.60;;;;;;;;;;10334332;28;20068;-69
2023/01/30 05:38:29;;;;;;;16.17;12.48;;;;;;;;;;10334023;28;20110;-69
2023/01/30 05:43:27;;;;;;;16.15;12.77;;;;;;;;;;10345722;28;20059;-69
2023/01/30 05:48:27;;;;;;;23.42;15.13;;;;;;;;;;10340256;28;20441;-69
2023/01/30 05:53:27;;;;;;;19.63;14.70;;;;;;;;;;10355742;28;20675;-70
2023/01/30 05:58:26;;;;;;;17.05;13.45;;;;;;;;;;10338702;28;20083;-69
2023/01/30 06:03:24;;;;;;;24.52;14.77;;;;;;;;;;10333947;28;20611;-69
2023/01/30 06:08:24;;;;;;;22.60;15.77;;;;;;;;;;10338530;28;20484;-70
2023/01/30 06:13:23;;;;;;;37.42;27.50;;;;;;;;;;10340492;28;20084;-70
2023/01/30 06:18:22;;;;;;;48.08;37.58;;;;;;;;;;10335673;28;20079;-70
2023/01/30 06:23:20;;;;;;;25.77;19.20;;;;;;;;;;10345391;28;20072;-69
2023/01/30 06:28:20;;;;;;;21.98;16.48;;;;;;;;;;10337316;28;20070;-69
2023/01/30 06:33:18;;;;;;;23.10;15.77;;;;;;;;;;10346875;28;20509;-69
2023/01/30 06:38:16;;;;;;;23.42;18.13;;;;;;;;;;10335379;28;20068;-69
2023/01/30 06:43:15;;;;;;;26.83;18.77;;;;;;;;;;10345010;28;20072;-69
2023/01/30 06:48:14;;;;;;;18.88;14.15;;;;;;;;;;10343152;28;20071;-69
2023/01/30 06:53:13;;;;;;;26.42;18.52;;;;;;;;;;10337257;28;20079;-69
2023/01/30 06:58:12;;;;;;;21.00;16.75;;;;;;;;;;10335880;28;20080;-69
2023/01/30 07:03:11;;;;;;;24.38;16.80;;;;;;;;;;10343706;28;20074;-70
2023/01/30 07:08:10;;;;;;;22.90;19.10;;;;;;;;;;10341805;28;20048;-70
2023/01/30 07:13:09;;;;;;;23.55;18.50;;;;;;;;;;10347656;28;20064;-70
2023/01/30 07:18:07;;;;;;;22.50;17.90;;;;;;;;;;10337448;28;20075;-70
2023/01/30 07:23:05;;;;;;;33.88;25.10;;;;;;;;;;10344257;28;20067;-70
2023/01/30 07:28:05;;;;;;;24.98;18.30;;;;;;;;;;10333543;28;20101;-70
2023/01/30 07:33:04;;;;;;;40.90;27.83;;;;;;;;;;10349703;28;20068;-70
2023/01/30 07:38:03;;;;;;;24.10;19.42;;;;;;;;;;10341021;28;20067;-71
2023/01/30 08:30:10;;;;;;;34.95;24.15;;;;;;;;;;10333519;28;20084;-70
2023/01/30 08:35:09;;;;;;;38.78;25.67;;;;;;;;;;10335012;28;20506;-70
2023/01/30 08:40:09;;;;;;;27.73;21.27;;;;;;;;;;10330660;28;20477;-71
2023/01/30 08:45:07;;;;;;;28.77;21.20;;;;;;;;;;10331634;28;20072;-71
2023/01/30 08:50:07;;;;;;;29.38;23.25;;;;;;;;;;10330412;28;20083;-70
2023/01/30 08:55:06;;;;;;;34.15;23.52;;;;;;;;;;10330019;28;20079;-70
2023/01/30 09:00:05;;;;;;;25.95;19.25;;;;;;;;;;10332402;28;20528;-70
2023/01/30 09:05:03;;;;;;;40.08;25.98;;;;;;;;;;10332579;28;20072;-71
2023/01/30 09:10:03;;;;;;;57.97;34.00;;;;;;;;;;10330383;28;20068;-71
2023/01/30 09:15:02;;;;;;;34.13;21.50;;;;;;;;;;10329727;28;20068;-70
2023/01/30 09:20:00;;;;;;;27.52;19.50;;;;;;;;;;10312171;28;20498;-69
2023/01/30 09:24:58;;;;;;;28.08;18.98;;;;;;;;;;10330536;28;20071;-69
2023/01/30 09:29:58;;;;;;;36.00;26.55;;;;;;;;;;10329145;28;20060;-69
2023/01/30 09:34:56;;;;;;;26.75;17.65;;;;;;;;;;10328102;28;20076;-70
2023/01/30 09:39:54;;;;;;;30.17;20.25;;;;;;;;;;10327803;28;20836;-69
2023/01/30 09:45:12;;;;;;;35.85;21.15;;;;;;;;;;10314975;28;20525;-70
2023/01/30 09:50:20;;;;;;;40.60;26.27;;;;;;;;;;10324760;28;20068;-70
2023/01/30 09:55:20;;;;;;;44.70;27.02;;;;;;;;;;10331305;28;20071;-69
2023/01/30 10:00:24;;;;;;;29.10;19.02;;;;;;;;;;10326733;28;20075;-70
2023/01/30 10:05:23;;;;;;;30.83;20.38;;;;;;;;;;10327717;28;20075;-69
2023/01/30 10:10:29;;;;;;;60.47;45.35;;;;;;;;;;10328733;28;20072;-70
2023/01/30 10:15:36;;;;;;;29.08;18.92;;;;;;;;;;10328162;28;20071;-70
2023/01/30 10:20:40;;;;;;;21.73;16.08;;;;;;;;;;10331702;28;20076;-70
2023/01/30 10:25:42;;;;;;;19.83;14.43;;;;;;;;;;10337333;28;20060;-70
2023/01/30 10:30:44;;;;;;;20.77;14.35;;;;;;;;;;10338083;28;20102;-70
2023/01/30 10:35:42;;;;;;;21.30;16.42;;;;;;;;;;10334575;28;20068;-69
2023/01/30 10:40:42;;;;;;;22.45;17.70;;;;;;;;;;10333384;28;20036;-70
2023/01/30 10:45:46;;;;;;;50.72;32.58;;;;;;;;;;10333618;28;20064;-70
2023/01/30 10:50:49;;;;;;;25.08;18.67;;;;;;;;;;10336667;28;20060;-69
2023/01/30 10:55:48;;;;;;;20.95;17.23;;;;;;;;;;10342981;28;20079;-70
2023/01/30 11:00:51;;;;;;;17.20;14.38;;;;;;;;;;10339331;28;20067;-69
2023/01/30 11:05:54;;;;;;;17.60;14.40;;;;;;;;;;10337028;28;20079;-69
2023/01/30 11:10:55;;;;;;;27.88;19.75;;;;;;;;;;10330604;28;20068;-69
2023/01/30 11:15:56;;;;;;;15.15;13.27;;;;;;;;;;10329913;28;20064;-70
2023/01/30 11:21:04;;;;;;;18.30;14.00;;;;;;;;;;10332455;28;20083;-69
2023/01/30 11:26:05;;;;;;;19.48;16.20;;;;;;;;;;10335271;28;20079;-70
2023/01/30 11:31:16;;;;;;;19.88;16.13;;;;;;;;;;10331554;28;20083;-70
2023/01/30 11:36:24;;;;;;;22.55;17.40;;;;;;;;;;10318505;28;20080;-70
2023/01/30 11:41:23;;;;;;;25.60;19.40;;;;;;;;;;10320297;28;20068;-70
2023/01/30 11:46:23;;;;;;;27.55;20.95;;;;;;;;;;10322235;28;20075;-70
2023/01/30 11:51:22;;;;;;;36.40;26.60;;;;;;;;;;10333123;28;20075;-70
2023/01/30 11:56:25;;;;;;;29.25;21.88;;;;;;;;;;10331223;28;20080;-70
2023/01/30 12:01:29;;;;;;;30.45;24.38;;;;;;;;;;10328596;28;20079;-70
2023/01/30 12:06:33;;;;;;;24.30;19.38;;;;;;;;;;10329367;28;20072;-70
2023/01/30 12:11:43;;;;;;;22.55;17.02;;;;;;;;;;10332289;28;20072;-70
2023/01/30 12:16:48;;;;;;;20.30;15.50;;;;;;;;;;10328099;28;20079;-70
2023/01/30 12:21:49;;;;;;;14.57;12.88;;;;;;;;;;10334038;28;20068;-70
2023/01/30 12:26:54;;;;;;;19.30;15.65;;;;;;;;;;10335788;28;20067;-70
2023/01/30 12:31:59;;;;;;;25.90;20.60;;;;;;;;;;10333743;28;20090;-71
2023/01/30 12:36:59;;;;;;;;;;;;;;;;;;10324942;28;20072;-69
2023/01/30 12:42:03;;;;;;;21.73;16.85;;;;;;;;;;10328234;28;19963;-69
2023/01/30 12:47:20;;;;;;;24.37;18.47;;;;;;;;;;10331140;28;20079;-70
2023/01/30 12:52:26;;;;;;;27.92;20.80;;;;;;;;;;10327247;28;20047;-70
2023/01/30 12:57:27;;;;;;;34.00;23.05;;;;;;;;;;10329921;28;20687;-70
2023/01/30 13:02:36;;;;;;;33.17;25.67;;;;;;;;;;10326144;28;20461;-71
2023/01/30 13:07:41;;;;;;;34.17;26.05;;;;;;;;;;10324536;28;20128;-71
2023/01/30 13:12:42;;;;;;;25.63;18.15;;;;;;;;;;10331417;28;20060;-71
2023/01/30 13:17:45;;;;;;;51.20;37.13;;;;;;;;;;10330542;28;20078;-70
2023/01/30 13:22:47;;;;;;;27.00;21.90;;;;;;;;;;10326987;28;20068;-70
2023/01/30 13:27:54;;;;;;;33.13;29.50;;;;;;;;;;10326487;28;20075;-70
2023/01/30 13:32:56;;;;;;;25.92;21.80;;;;;;;;;;10333163;28;20068;-70
2023/01/30 13:37:56;;;;;;;21.90;15.98;;;;;;;;;;10329864;28;20091;-70
2023/01/30 13:42:56;;;;;;;29.55;21.83;;;;;;;;;;10325467;28;20064;-71
2023/01/30 13:48:03;;;;;;;28.20;21.58;;;;;;;;;;10329666;28;20068;-71
2023/01/30 13:53:05;;;;;;;39.47;32.70;;;;;;;;;;10328126;28;20072;-70
2023/01/30 13:58:09;;;;;;;53.60;34.97;;;;;;;;;;10331478;28;20080;-71
2023/01/30 14:03:30;;;;;;;31.00;24.08;;;;;;;;;;10336718;28;20061;-70
2023/01/30 14:08:29;;;;;;;36.80;26.35;;;;;;;;;;10335289;28;20083;-70
2023/01/30 14:13:27;;;;;;;46.22;32.40;;;;;;;;;;10335138;28;20067;-70
2023/01/30 14:18:32;;;;;;;57.78;40.10;;;;;;;;;;10316122;28;20080;-70
2023/01/30 14:23:32;;;;;;;56.15;36.13;;;;;;;;;;10334446;28;20069;-70
2023/01/30 14:28:48;;;;;;;50.67;32.75;;;;;;;;;;10332727;28;20060;-69
2023/01/30 14:33:51;;;;;;;67.32;38.55;;;;;;;;;;10328879;28;20095;-70
2023/01/30 14:38:56;;;;;;;78.32;51.30;;;;;;;;;;10337105;28;20083;-71
2023/01/30 14:43:55;;;;;;;61.15;41.28;;;;;;;;;;10334442;28;20060;-70
2023/01/30 14:48:59;;;;;;;69.95;45.75;;;;;;;;;;10333999;28;20076;-70
2023/01/30 14:53:59;;;;;;;66.32;44.20;;;;;;;;;;10335173;28;20075;-70
2023/01/30 14:59:01;;;;;;;76.45;55.72;;;;;;;;;;10330465;28;20079;-70
2023/01/30 15:04:04;;;;;;;79.38;54.42;;;;;;;;;;10333045;28;20072;-71
2023/01/30 15:09:08;;;;;;;65.63;45.47;;;;;;;;;;10331959;28;20086;-72
2023/01/30 15:14:10;;;;;;;60.08;38.05;;;;;;;;;;10330370;28;20084;-71
2023/01/30 15:19:17;;;;;;;122.45;97.32;;;;;;;;;;10331958;28;20323;-71
2023/01/30 15:24:29;;;;;;;72.72;53.13;;;;;;;;;;10332990;28;20067;-71
2023/01/30 15:29:39;;;;;;;88.68;60.97;;;;;;;;;;10333013;28;20086;-71
2023/01/30 15:34:48;;;;;;;99.78;70.55;;;;;;;;;;10326615;28;20080;-70
2023/01/30 15:39:46;;;;;;;104.00;75.38;;;;;;;;;;10334741;28;20075;-69
2023/01/30 15:44:53;;;;;;;334.20;212.35;;;;;;;;;;10333006;28;20077;-71
2023/01/30 15:49:56;;;;;;;366.55;206.27;;;;;;;;;;10340549;28;20076;-71
2023/01/30 15:54:59;;;;;;;470.65;284.00;;;;;;;;;;10337316;28;20071;-70
2023/01/30 15:59:57;;;;;;;459.23;269.90;;;;;;;;;;10332332;28;20076;-70
2023/01/30 16:05:13;;;;;;;422.48;245.55;;;;;;;;;;10332218;28;20076;-71
2023/01/30 16:10:13;;;;;;;478.75;269.55;;;;;;;;;;10336464;28;20536;-70
2023/01/30 16:15:15;;;;;;;218.38;136.65;;;;;;;;;;10334166;28;20071;-70
2023/01/30 16:20:18;;;;;;;224.32;139.23;;;;;;;;;;10332396;28;20534;-70
2023/01/30 16:25:19;;;;;;;153.98;102.95;;;;;;;;;;10339931;28;20071;-69
2023/01/30 16:30:22;;;;;;;72.55;47.15;;;;;;;;;;10331145;28;20103;-70
2023/01/30 16:35:36;;;;;;;223.43;140.70;;;;;;;;;;10330824;28;20079;-70
2023/01/30 16:40:43;;;;;;;170.60;133.00;;;;;;;;;;10336598;28;20076;-70
2023/01/30 16:45:53;;;;;;;140.80;99.32;;;;;;;;;;10318167;28;20068;-71
2023/01/30 16:51:09;;;;;;;83.97;57.53;;;;;;;;;;10329522;28;20072;-71
2023/01/30 16:56:09;;;;;;;58.03;40.65;;;;;;;;;;10326765;28;20064;-70
2023/01/30 17:01:08;;;;;;;57.95;43.03;;;;;;;;;;10334023;28;20511;-71
2023/01/30 17:06:13;;;;;;;45.67;35.30;;;;;;;;;;10331520;28;20075;-70
2023/01/30 17:11:27;;;;;;;50.85;35.65;;;;;;;;;;10330568;28;20297;-69
2023/01/30 17:16:27;;;;;;;64.80;38.50;;;;;;;;;;10327565;28;20072;-69
2023/01/30 17:21:28;;;;;;;59.53;37.80;;;;;;;;;;10325947;28;20115;-68
2023/01/30 17:26:26;;;;;;;47.35;34.45;;;;;;;;;;10330824;28;20095;-70
2023/01/30 17:31:24;;;;;;;36.03;27.65;;;;;;;;;;10334990;28;20106;-71
2023/01/30 17:36:25;;;;;;;70.00;43.33;;;;;;;;;;10342631;28;20079;-70
2023/01/30 17:41:27;;;;;;;129.23;80.38;;;;;;;;;;10339805;28;20481;-71
2023/01/30 17:46:31;;;;;;;95.47;59.13;;;;;;;;;;10329113;28;20068;-70
2023/01/30 17:51:29;;;;;;;79.38;56.35;;;;;;;;;;10344226;28;20079;-70
2023/01/30 17:56:31;;;;;;;57.58;42.30;;;;;;;;;;10335530;28;20060;-70
2023/01/30 18:01:29;;;;;;;44.70;32.60;;;;;;;;;;10337457;28;20082;-70
2023/01/30 18:06:28;;;;;;;36.85;24.38;;;;;;;;;;10335339;28;20079;-70
2023/01/30 18:11:26;;;;;;;35.13;23.95;;;;;;;;;;10338196;28;20505;-70
2023/01/30 18:16:29;;;;;;;33.28;22.67;;;;;;;;;;10349648;28;20072;-70
2023/01/30 18:21:30;;;;;;;30.77;21.15;;;;;;;;;;10337650;28;20076;-70
2023/01/30 18:26:29;;;;;;;30.70;21.48;;;;;;;;;;10322164;28;20060;-70
2023/01/30 18:31:30;;;;;;;28.88;22.17;;;;;;;;;;10342949;28;20083;-70
2023/01/30 18:36:28;;;;;;;38.67;26.77;;;;;;;;;;10338431;28;20060;-70
2023/01/30 18:41:29;;;;;;;45.20;29.10;;;;;;;;;;10338514;28;20071;-70
2023/01/30 18:46:28;;;;;;;35.30;25.58;;;;;;;;;;10319459;28;20075;-70
2023/01/30 18:51:28;;;;;;;35.97;25.35;;;;;;;;;;10335694;28;20060;-70
2023/01/30 18:56:28;;;;;;;28.73;21.05;;;;;;;;;;10338382;28;20075;-71
2023/01/30 19:01:27;;;;;;;23.90;18.00;;;;;;;;;;10330252;28;20083;-70
2023/01/30 19:06:25;;;;;;;22.60;17.30;;;;;;;;;;10330232;28;20525;-70
2023/01/30 19:16:41;;;;;;;29.08;21.42;;;;;;;;;;10337174;28;20063;-70
2023/01/30 19:21:39;;;;;;;24.40;18.25;;;;;;;;;;10334814;28;20075;-70
2023/01/30 19:26:39;;;;;;;30.08;23.40;;;;;;;;;;10341509;28;20064;-70
2023/01/30 19:31:42;;;;;;;25.92;20.90;;;;;;;;;;10332762;28;20072;-70
2023/01/30 19:36:41;;;;;;;29.35;22.58;;;;;;;;;;10341681;28;20068;-72
2023/01/30 19:41:40;;;;;;;27.30;18.13;;;;;;;;;;10329934;28;20461;-71
2023/01/30 19:46:39;;;;;;;35.00;24.00;;;;;;;;;;10332884;28;20486;-71
2023/01/30 19:51:37;;;;;;;27.48;18.05;;;;;;;;;;10329804;28;20071;-70
2023/01/30 19:56:38;;;;;;;24.42;17.00;;;;;;;;;;10331705;28;20071;-71
2023/01/30 20:01:38;;;;;;;26.30;16.73;;;;;;;;;;10332899;28;20858;-71
2023/01/30 20:06:37;;;;;;;20.50;15.82;;;;;;;;;;10335434;28;20488;-70
2023/01/30 20:11:36;;;;;;;20.13;15.65;;;;;;;;;;10333155;28;20067;-72
2023/01/30 20:16:35;;;;;;;24.20;15.82;;;;;;;;;;10334010;28;20083;-70
2023/01/30 20:21:34;;;;;;;28.67;19.52;;;;;;;;;;10323108;28;20086;-71
2023/01/30 20:26:34;;;;;;;27.05;18.20;;;;;;;;;;10344040;28;20496;-71
2023/01/30 20:31:33;;;;;;;24.10;16.95;;;;;;;;;;10336557;28;20623;-70
2023/01/30 20:36:32;;;;;;;25.17;18.10;;;;;;;;;;10340447;28;20048;-70
2023/01/30 20:41:33;;;;;;;24.55;17.52;;;;;;;;;;10335849;28;20535;-71
2023/01/30 20:46:39;;;;;;;22.55;18.23;;;;;;;;;;10332472;28;20067;-71
2023/01/30 20:51:40;;;;;;;26.38;18.65;;;;;;;;;;10330770;28;20528;-71
2023/01/30 20:56:42;;;;;;;23.85;19.20;;;;;;;;;;10334034;28;20160;-70
2023/01/30 21:01:41;;;;;;;27.23;19.17;;;;;;;;;;10326240;28;20079;-70
2023/01/30 21:06:39;;;;;;;27.70;20.73;;;;;;;;;;10322978;28;20079;-70
2023/01/30 21:11:43;;;;;;;35.83;24.65;;;;;;;;;;10332584;28;20076;-70
2023/01/30 21:16:41;;;;;;;25.83;20.42;;;;;;;;;;10307293;28;20072;-71
2023/01/30 21:21:41;;;;;;;23.10;17.08;;;;;;;;;;10326281;28;20060;-71
2023/01/30 21:26:43;;;;;;;23.17;16.95;;;;;;;;;;10334472;28;20068;-72
2023/01/30 21:31:46;;;;;;;21.70;16.58;;;;;;;;;;10326905;28;20090;-69
2023/01/30 21:43:12;;;;;;;21.15;16.00;;;;;;;;;;10326231;28;20072;-71
2023/01/30 21:47:20;;;;;;;24.45;17.88;;;;;;;;;;10334971;28;20505;-71
2023/01/30 21:52:18;;;;;;;23.77;18.70;;;;;;;;;;10331632;28;20071;-72
2023/01/30 21:57:16;;;;;;;23.92;18.30;;;;;;;;;;10331188;28;20067;-71
2023/01/30 22:02:15;;;;;;;20.52;16.15;;;;;;;;;;10327993;28;20072;-71
2023/01/30 22:07:14;;;;;;;20.92;16.60;;;;;;;;;;10326475;28;20072;-71
2023/01/30 22:12:12;;;;;;;22.58;16.88;;;;;;;;;;10328914;28;20086;-71
2023/01/30 22:17:10;;;;;;;22.48;16.83;;;;;;;;;;10326193;28;20083;-71
2023/01/30 22:22:09;;;;;;;21.42;16.55;;;;;;;;;;10335217;28;20076;-72
2023/01/30 22:27:08;;;;;;;19.80;15.48;;;;;;;;;;10338424;28;20456;-71
2023/01/30 22:32:06;;;;;;;19.40;15.82;;;;;;;;;;10337265;28;20091;-71
2023/01/30 22:37:05;;;;;;;22.45;16.58;;;;;;;;;;10335109;28;20463;-71
2023/01/30 22:42:03;;;;;;;21.98;15.82;;;;;;;;;;10340976;28;20072;-71
2023/01/30 22:47:03;;;;;;;23.40;17.45;;;;;;;;;;10327707;28;20067;-71
2023/01/30 22:52:01;;;;;;;25.10;17.08;;;;;;;;;;10333697;28;20055;-71
2023/01/30 22:56:59;;;;;;;19.77;15.90;;;;;;;;;;10335230;28;20076;-71
2023/01/30 23:01:57;;;;;;;19.88;15.65;;;;;;;;;;10341172;28;20505;-71
2023/01/30 23:06:58;;;;;;;20.67;15.88;;;;;;;;;;10334939;28;20063;-71
2023/01/30 23:22:30;;;;;;;19.95;15.23;;;;;;;;;;10335800;28;20075;-70
2023/01/30 23:27:29;;;;;;;24.13;15.13;;;;;;;;;;10333674;28;20037;-71
2023/01/30 23:32:27;;;;;;;21.48;16.38;;;;;;;;;;10329707;28;20106;-71
2023/01/30 23:38:14;;;;;;;19.92;16.42;;;;;;;;;;10332314;28;20076;-71
2023/01/30 23:42:45;;;;;;;20.55;14.77;;;;;;;;;;10336534;28;20047;-71
2023/01/30 23:47:43;;;;;;;20.05;15.23;;;;;;;;;;10336644;28;20084;-71
2023/01/30 23:52:43;;;;;;;24.55;16.83;;;;;;;;;;10334195;28;20501;-71
2023/01/30 23:57:41;;;;;;;24.17;19.13;;;;;;;;;;10335358;28;20072;-71
